createdAt,value
2022-07-31T00:00:23.146Z,20.34
2022-07-31T00:02:49.875Z,20.31
2022-07-31T00:05:16.829Z,20.27
2022-07-31T00:07:43.511Z,20.27
2022-07-31T00:10:10.253Z,20.26
2022-07-31T00:12:36.902Z,20.22
2022-07-31T00:15:06.051Z,20.23
2022-07-31T00:17:33.064Z,20.22
2022-07-31T00:19:59.708Z,20.18
2022-07-31T00:22:26.302Z,20.12
2022-07-31T00:24:52.827Z,20.10
2022-07-31T00:27:19.404Z,20.09
2022-07-31T00:29:45.947Z,20.11
2022-07-31T00:32:12.570Z,20.01
2022-07-31T00:34:39.099Z,20.02
2022-07-31T00:37:05.873Z,19.99
2022-07-31T00:39:32.702Z,19.97
2022-07-31T00:41:59.270Z,19.93
2022-07-31T00:44:26.123Z,19.93
2022-07-31T00:46:52.743Z,19.90
2022-07-31T00:49:20.323Z,19.94
2022-07-31T00:51:47.100Z,19.95
2022-07-31T00:54:18.673Z,19.95
2022-07-31T00:56:49.482Z,19.97
2022-07-31T00:59:16.123Z,19.98
2022-07-31T01:01:44.503Z,19.97
2022-07-31T01:04:15.567Z,19.94
2022-07-31T01:06:42.763Z,19.92
2022-07-31T01:09:09.460Z,19.84
2022-07-31T01:11:48.479Z,19.76
2022-07-31T01:14:19.860Z,19.73
2022-07-31T01:16:53.425Z,19.77
2022-07-31T01:19:38.509Z,19.70
2022-07-31T01:22:46.935Z,19.70
2022-07-31T01:25:45.849Z,19.66
2022-07-31T01:28:40.217Z,19.63
2022-07-31T01:31:26.072Z,19.59
2022-07-31T01:34:02.662Z,19.57
2022-07-31T01:36:35.153Z,19.63
2022-07-31T01:39:03.011Z,19.64
2022-07-31T01:41:36.199Z,19.62
2022-07-31T01:44:05.501Z,19.62
2022-07-31T01:46:37.438Z,19.62
2022-07-31T01:49:11.179Z,19.59
2022-07-31T01:51:39.907Z,19.58
2022-07-31T01:54:07.512Z,19.53
2022-07-31T01:56:34.990Z,19.41
2022-07-31T01:59:02.745Z,19.27
2022-07-31T02:01:32.483Z,19.24
2022-07-31T02:04:02.723Z,19.29
2022-07-31T02:06:30.195Z,19.27
2022-07-31T02:08:58.142Z,19.29
2022-07-31T02:11:24.986Z,19.31
2022-07-31T02:13:53.459Z,19.35
2022-07-31T02:16:21.232Z,19.35
2022-07-31T02:18:50.592Z,19.35
2022-07-31T02:21:17.476Z,19.35
2022-07-31T02:23:44.238Z,19.36
2022-07-31T02:26:11.771Z,19.33
2022-07-31T02:28:42.045Z,19.26
2022-07-31T02:31:11.993Z,19.22
2022-07-31T02:33:41.985Z,19.20
2022-07-31T02:36:09.572Z,19.17
2022-07-31T02:38:37.442Z,19.07
2022-07-31T02:41:05.306Z,19.05
2022-07-31T02:43:34.743Z,19.03
2022-07-31T02:46:02.149Z,19.03
2022-07-31T02:48:29.351Z,19.04
2022-07-31T02:50:56.430Z,18.99
2022-07-31T02:53:23.501Z,18.98
2022-07-31T02:55:51.661Z,19.00
2022-07-31T02:58:18.305Z,18.97
2022-07-31T03:00:45.894Z,18.92
2022-07-31T03:03:12.658Z,18.96
2022-07-31T03:05:39.164Z,18.94
2022-07-31T03:08:05.736Z,18.94
2022-07-31T03:10:32.348Z,18.96
2022-07-31T03:13:00.748Z,18.92
2022-07-31T03:15:28.989Z,18.92
2022-07-31T03:17:55.838Z,18.83
2022-07-31T03:20:23.437Z,18.80
2022-07-31T03:22:51.053Z,18.80
2022-07-31T03:25:21.341Z,18.85
2022-07-31T03:27:56.309Z,18.89
2022-07-31T03:30:26.923Z,18.89
2022-07-31T03:32:54.509Z,18.89
2022-07-31T03:35:21.286Z,18.84
2022-07-31T03:37:47.945Z,18.83
2022-07-31T03:40:14.573Z,18.86
2022-07-31T03:42:41.708Z,18.80
2022-07-31T03:45:10.849Z,18.76
2022-07-31T03:47:37.772Z,18.79
2022-07-31T03:50:06.444Z,18.83
2022-07-31T03:52:32.965Z,18.84
2022-07-31T03:54:59.628Z,18.81
2022-07-31T03:57:31.090Z,18.74
2022-07-31T04:00:01.635Z,18.69
2022-07-31T04:02:31.866Z,18.66
2022-07-31T04:04:59.553Z,18.66
2022-07-31T04:07:26.583Z,18.64
2022-07-31T04:09:53.380Z,18.63
2022-07-31T04:12:20.146Z,18.69
2022-07-31T04:14:46.983Z,18.75
2022-07-31T04:17:13.622Z,18.75
2022-07-31T04:19:40.738Z,18.74
2022-07-31T04:22:08.148Z,18.73
2022-07-31T04:24:35.102Z,18.74
2022-07-31T04:27:01.946Z,18.78
2022-07-31T04:29:31.323Z,18.83
2022-07-31T04:31:58.723Z,18.78
2022-07-31T04:37:06.486Z,18.71
2022-07-31T04:39:33.088Z,18.73
2022-07-31T04:42:00.131Z,18.72
2022-07-31T04:44:26.868Z,18.67
2022-07-31T04:46:59.472Z,18.66
2022-07-31T04:49:27.403Z,18.68
2022-07-31T04:51:53.948Z,18.70
2022-07-31T04:54:20.581Z,18.72
2022-07-31T04:56:48.524Z,18.70
2022-07-31T04:59:18.298Z,18.76
2022-07-31T05:01:45.531Z,18.78
2022-07-31T05:04:12.491Z,18.86
2022-07-31T05:06:42.181Z,18.92
2022-07-31T05:09:15.093Z,18.93
2022-07-31T05:11:46.091Z,18.98
2022-07-31T05:14:14.766Z,19.02
2022-07-31T05:16:41.293Z,19.06
2022-07-31T05:19:13.922Z,19.10
2022-07-31T05:21:54.114Z,19.11
2022-07-31T05:24:33.069Z,19.16
2022-07-31T05:27:01.737Z,19.18
2022-07-31T05:29:28.302Z,19.13
2022-07-31T05:32:10.125Z,19.09
2022-07-31T05:34:37.168Z,19.10
2022-07-31T05:37:03.957Z,19.13
2022-07-31T05:39:30.600Z,19.14
2022-07-31T05:41:58.907Z,19.12
2022-07-31T05:44:25.636Z,19.11
2022-07-31T05:49:22.313Z,19.16
2022-07-31T05:51:54.893Z,19.17
2022-07-31T05:54:26.380Z,19.16
2022-07-31T05:56:53.075Z,19.12
2022-07-31T05:59:20.145Z,19.15
2022-07-31T06:04:27.873Z,19.17
2022-07-31T06:06:54.403Z,19.17
2022-07-31T06:09:20.980Z,19.17
2022-07-31T06:11:47.592Z,19.14
2022-07-31T06:14:16.292Z,19.16
2022-07-31T06:16:42.924Z,19.25
2022-07-31T06:19:09.828Z,19.34
2022-07-31T06:21:36.660Z,19.38
2022-07-31T06:24:03.801Z,19.42
2022-07-31T06:26:30.429Z,19.50
2022-07-31T06:28:56.992Z,19.47
2022-07-31T06:31:23.826Z,19.44
2022-07-31T06:33:54.515Z,19.50
2022-07-31T06:36:21.259Z,19.48
2022-07-31T06:38:47.859Z,19.47
2022-07-31T06:41:33.263Z,19.44
2022-07-31T06:44:02.498Z,19.43
2022-07-31T06:46:29.317Z,19.42
2022-07-31T06:48:57.095Z,19.45
2022-07-31T06:51:32.175Z,19.47
2022-07-31T06:54:02.660Z,19.53
2022-07-31T06:56:30.861Z,19.58
2022-07-31T06:59:03.052Z,19.64
2022-07-31T07:01:29.828Z,19.69
2022-07-31T07:03:57.191Z,19.78
2022-07-31T07:06:24.468Z,19.83
2022-07-31T07:08:54.565Z,19.84
2022-07-31T07:11:23.771Z,19.86
2022-07-31T07:14:05.501Z,19.89
2022-07-31T07:16:41.686Z,19.91
2022-07-31T07:19:08.225Z,19.97
2022-07-31T07:21:34.925Z,20.02
2022-07-31T07:24:04.144Z,20.03
2022-07-31T07:26:31.402Z,20.08
2022-07-31T07:29:23.194Z,20.16
2022-07-31T07:31:50.010Z,20.19
2022-07-31T07:34:18.006Z,20.21
2022-07-31T07:36:46.297Z,20.26
2022-07-31T07:39:14.913Z,20.28
2022-07-31T07:42:08.589Z,20.35
2022-07-31T07:44:37.460Z,20.48
2022-07-31T07:47:06.713Z,20.62
2022-07-31T07:49:36.337Z,20.73
2022-07-31T07:52:04.326Z,20.80
2022-07-31T07:54:30.869Z,20.87
2022-07-31T07:57:16.536Z,21.04
2022-07-31T08:00:00.513Z,21.18
2022-07-31T08:02:27.400Z,21.18
2022-07-31T08:04:55.681Z,21.15
2022-07-31T08:07:42.442Z,21.20
2022-07-31T08:10:10.124Z,21.10
2022-07-31T08:12:37.401Z,21.07
2022-07-31T08:15:06.115Z,21.00
2022-07-31T08:17:34.591Z,20.94
2022-07-31T08:20:06.812Z,20.93
2022-07-31T08:22:39.751Z,20.90
2022-07-31T08:25:14.189Z,20.89
2022-07-31T08:27:42.358Z,20.90
2022-07-31T08:30:22.265Z,20.83
2022-07-31T08:32:57.677Z,20.83
2022-07-31T08:35:50.811Z,20.79
2022-07-31T08:38:23.627Z,20.71
2022-07-31T08:40:50.206Z,20.61
2022-07-31T08:44:00.066Z,20.49
2022-07-31T08:46:04.801Z,20.57
2022-07-31T08:48:33.501Z,20.60
2022-07-31T08:51:03.568Z,20.64
2022-07-31T08:53:32.988Z,20.66
2022-07-31T08:55:59.838Z,20.72
2022-07-31T08:58:26.375Z,20.84
2022-07-31T09:00:53.364Z,20.96
2022-07-31T09:03:20.006Z,21.15
2022-07-31T09:05:46.629Z,21.33
2022-07-31T09:11:11.308Z,21.47
2022-07-31T09:13:38.906Z,21.60
2022-07-31T09:16:10.641Z,21.70
2022-07-31T09:18:37.113Z,21.66
2022-07-31T09:21:06.618Z,21.55
2022-07-31T09:23:33.494Z,21.51
2022-07-31T09:26:07.520Z,21.29
2022-07-31T09:28:39.465Z,21.21
2022-07-31T09:31:07.943Z,21.16
2022-07-31T09:33:36.965Z,21.09
2022-07-31T09:36:04.232Z,21.06
2022-07-31T09:38:39.856Z,21.01
2022-07-31T09:41:55.888Z,20.95
2022-07-31T09:44:10.105Z,20.92
2022-07-31T09:46:45.640Z,20.78
2022-07-31T09:49:13.861Z,20.75
2022-07-31T09:51:45.459Z,20.77
2022-07-31T09:54:26.780Z,20.81
2022-07-31T09:56:54.083Z,20.78
2022-07-31T09:59:20.636Z,20.80
2022-07-31T10:01:50.766Z,20.90
2022-07-31T10:07:09.152Z,21.48
2022-07-31T10:09:57.511Z,21.77
2022-07-31T10:12:28.651Z,22.15
2022-07-31T10:14:58.972Z,22.56
2022-07-31T10:17:35.866Z,22.95
2022-07-31T10:20:05.625Z,23.26
2022-07-31T10:22:40.369Z,23.08
2022-07-31T10:25:12.896Z,23.02
2022-07-31T10:27:40.644Z,22.91
2022-07-31T10:30:10.112Z,22.71
2022-07-31T10:32:38.453Z,22.47
2022-07-31T10:35:09.037Z,22.25
2022-07-31T10:37:55.968Z,22.21
2022-07-31T10:40:25.047Z,22.22
2022-07-31T10:43:17.072Z,22.16
2022-07-31T10:45:51.548Z,22.08
2022-07-31T10:48:19.189Z,21.93
2022-07-31T10:50:46.411Z,21.90
2022-07-31T10:53:15.414Z,21.87
2022-07-31T10:55:54.062Z,21.82
2022-07-31T10:58:20.767Z,21.78
2022-07-31T11:00:47.453Z,21.73
2022-07-31T11:03:22.126Z,21.84
2022-07-31T11:06:02.405Z,22.02
2022-07-31T11:08:43.077Z,21.93
2022-07-31T11:11:10.068Z,21.90
2022-07-31T11:13:46.871Z,21.90
2022-07-31T11:16:13.546Z,21.92
2022-07-31T11:18:40.266Z,21.88
2022-07-31T11:21:37.603Z,21.83
2022-07-31T11:24:23.669Z,21.70
2022-07-31T11:26:59.722Z,21.61
2022-07-31T11:30:01.428Z,21.58
2022-07-31T11:32:28.408Z,21.51
2022-07-31T11:34:56.800Z,21.54
2022-07-31T11:37:46.335Z,21.56
2022-07-31T11:40:22.173Z,21.56
2022-07-31T11:43:10.423Z,21.52
2022-07-31T11:45:52.215Z,21.46
2022-07-31T11:48:21.118Z,21.43
2022-07-31T11:50:50.149Z,21.41
2022-07-31T11:53:21.311Z,21.44
2022-07-31T11:56:02.853Z,21.33
2022-07-31T11:58:29.832Z,21.34
2022-07-31T12:01:05.073Z,21.31
2022-07-31T12:03:38.474Z,21.40
2022-07-31T12:06:06.914Z,21.59
2022-07-31T12:08:35.365Z,21.90
2022-07-31T12:11:04.449Z,22.10
2022-07-31T12:13:33.421Z,22.21
2022-07-31T12:16:08.051Z,22.25
2022-07-31T12:18:54.965Z,22.46
2022-07-31T12:21:30.989Z,22.51
2022-07-31T12:23:58.326Z,22.60
2022-07-31T12:26:31.918Z,22.73
2022-07-31T12:29:05.991Z,22.64
2022-07-31T12:31:51.730Z,22.51
2022-07-31T12:34:36.045Z,22.40
2022-07-31T12:37:05.724Z,22.30
2022-07-31T12:39:47.769Z,22.24
2022-07-31T12:42:40.990Z,22.27
2022-07-31T12:45:17.975Z,22.37
2022-07-31T12:47:45.923Z,22.46
2022-07-31T12:50:18.016Z,22.83
2022-07-31T12:52:58.258Z,23.08
2022-07-31T12:55:25.256Z,23.14
2022-07-31T12:57:52.708Z,23.15
2022-07-31T13:00:24.220Z,23.10
2022-07-31T13:02:56.210Z,23.09
2022-07-31T13:05:24.321Z,23.33
2022-07-31T13:07:51.679Z,23.55
2022-07-31T13:10:21.384Z,23.66
2022-07-31T13:12:51.962Z,23.56
2022-07-31T13:15:29.402Z,23.51
2022-07-31T13:17:57.608Z,23.57
2022-07-31T13:20:24.679Z,23.66
2022-07-31T13:22:51.585Z,23.78
2022-07-31T13:25:19.441Z,23.76
2022-07-31T13:27:47.376Z,23.46
2022-07-31T13:30:14.519Z,23.18
2022-07-31T13:32:41.421Z,23.00
2022-07-31T13:35:26.627Z,22.97
2022-07-31T13:38:06.054Z,23.00
2022-07-31T13:40:56.639Z,23.04
2022-07-31T13:43:23.778Z,22.98
2022-07-31T13:45:51.775Z,22.91
2022-07-31T13:48:18.327Z,22.90
2022-07-31T13:50:45.222Z,22.83
2022-07-31T13:53:11.801Z,22.72
2022-07-31T13:55:38.769Z,22.70
2022-07-31T13:58:05.308Z,22.84
2022-07-31T14:00:32.250Z,23.07
2022-07-31T14:02:58.676Z,23.27
2022-07-31T14:05:26.794Z,23.44
2022-07-31T14:07:54.932Z,23.32
2022-07-31T14:10:24.786Z,22.95
2022-07-31T14:12:51.238Z,22.73
2022-07-31T14:15:18.306Z,22.46
2022-07-31T14:17:45.494Z,22.32
2022-07-31T14:20:13.270Z,22.19
2022-07-31T14:22:40.296Z,22.08
2022-07-31T14:25:07.308Z,21.90
2022-07-31T14:27:38.632Z,21.76
2022-07-31T14:30:09.485Z,21.69
2022-07-31T14:32:36.334Z,21.59
2022-07-31T14:35:08.112Z,21.51
2022-07-31T14:37:35.904Z,21.52
2022-07-31T14:40:02.998Z,21.59
2022-07-31T14:42:29.812Z,21.60
2022-07-31T14:44:58.698Z,21.61
2022-07-31T14:47:26.346Z,21.63
2022-07-31T14:50:07.644Z,21.78
2022-07-31T14:52:38.365Z,21.98
2022-07-31T14:55:05.855Z,22.24
2022-07-31T14:57:35.135Z,22.33
2022-07-31T15:00:01.654Z,22.15
2022-07-31T15:02:28.343Z,22.12
2022-07-31T15:04:55.149Z,22.16
2022-07-31T15:07:41.270Z,22.18
2022-07-31T15:10:10.285Z,22.36
2022-07-31T15:12:37.149Z,22.48
2022-07-31T15:15:04.285Z,22.41
2022-07-31T15:17:30.737Z,22.39
2022-07-31T15:19:57.595Z,22.19
2022-07-31T15:22:26.839Z,22.09
2022-07-31T15:24:53.502Z,22.07
2022-07-31T15:27:24.758Z,21.99
2022-07-31T15:32:25.102Z,21.88
2022-07-31T15:34:55.560Z,21.85
2022-07-31T15:37:22.137Z,21.77
2022-07-31T15:40:01.492Z,21.69
2022-07-31T15:42:33.952Z,21.53
2022-07-31T15:45:03.473Z,21.33
2022-07-31T15:47:38.507Z,21.24
2022-07-31T15:50:08.118Z,21.20
2022-07-31T15:52:34.566Z,21.28
2022-07-31T15:55:01.344Z,21.32
2022-07-31T15:57:28.168Z,21.31
2022-07-31T15:59:54.812Z,21.41
2022-07-31T16:02:22.523Z,21.50
2022-07-31T16:04:52.886Z,21.58
2022-07-31T16:08:29.029Z,21.59
2022-07-31T16:10:16.620Z,21.58
2022-07-31T16:12:46.881Z,21.51
2022-07-31T16:15:14.244Z,21.51
2022-07-31T16:17:41.546Z,21.51
2022-07-31T16:20:20.809Z,21.51
2022-07-31T16:22:56.128Z,21.50
2022-07-31T16:25:23.524Z,21.53
2022-07-31T16:27:50.162Z,21.71
2022-07-31T16:30:20.075Z,21.84
2022-07-31T16:32:46.822Z,21.84
2022-07-31T16:35:13.365Z,21.79
2022-07-31T16:37:51.827Z,21.79
2022-07-31T16:40:28.364Z,21.80
2022-07-31T16:42:56.284Z,21.70
2022-07-31T16:45:25.577Z,21.66
2022-07-31T16:47:52.511Z,21.69
2022-07-31T16:50:19.513Z,21.71
2022-07-31T16:52:54.217Z,21.63
2022-07-31T16:55:55.774Z,21.54
2022-07-31T16:58:11.253Z,21.39
2022-07-31T17:00:40.894Z,21.44
2022-07-31T17:03:58.926Z,21.46
2022-07-31T17:05:54.305Z,21.44
2022-07-31T17:08:21.153Z,21.38
2022-07-31T17:10:52.472Z,21.29
2022-07-31T17:13:25.805Z,21.21
2022-07-31T17:15:52.499Z,21.14
2022-07-31T17:18:25.149Z,21.15
2022-07-31T17:21:00.977Z,21.18
2022-07-31T17:23:43.938Z,21.13
2022-07-31T17:26:21.003Z,21.14
2022-07-31T17:28:51.177Z,21.12
2022-07-31T17:31:19.047Z,21.09
2022-07-31T17:33:58.911Z,21.04
2022-07-31T17:36:29.161Z,20.99
2022-07-31T17:38:59.105Z,20.98
2022-07-31T17:41:26.164Z,20.96
2022-07-31T17:43:55.780Z,20.94
2022-07-31T17:46:29.931Z,20.94
2022-07-31T17:49:06.131Z,20.93
2022-07-31T17:51:33.244Z,20.89
2022-07-31T17:54:09.825Z,20.84
2022-07-31T17:56:36.744Z,20.78
2022-07-31T17:59:06.389Z,20.77
2022-07-31T18:01:35.920Z,20.72
2022-07-31T18:04:05.019Z,20.67
2022-07-31T18:06:31.506Z,20.71
2022-07-31T18:08:59.018Z,20.61
2022-07-31T18:11:25.837Z,20.56
2022-07-31T18:13:55.403Z,20.57
2022-07-31T18:16:30.293Z,20.53
2022-07-31T18:18:56.913Z,20.51
2022-07-31T18:21:23.372Z,20.52
2022-07-31T18:23:50.104Z,20.51
2022-07-31T18:26:16.565Z,20.43
2022-07-31T18:28:43.151Z,20.46
2022-07-31T18:31:30.754Z,20.39
2022-07-31T18:33:57.056Z,20.33
2022-07-31T18:36:23.741Z,20.32
2022-07-31T18:38:51.915Z,20.34
2022-07-31T18:41:20.819Z,20.31
2022-07-31T18:43:47.719Z,20.26
2022-07-31T18:46:16.190Z,20.26
2022-07-31T18:48:42.632Z,20.22
2022-07-31T18:51:09.275Z,20.19
2022-07-31T18:53:38.532Z,20.15
2022-07-31T18:56:05.093Z,20.15
2022-07-31T18:58:31.768Z,20.14
2022-07-31T19:00:58.337Z,20.13
2022-07-31T19:03:26.406Z,20.09
2022-07-31T19:05:55.809Z,20.12
2022-07-31T19:08:22.421Z,20.10
2022-07-31T19:10:49.785Z,20.09
2022-07-31T19:13:19.238Z,20.04
2022-07-31T19:15:51.482Z,20.02
2022-07-31T19:18:28.102Z,20.04
2022-07-31T19:20:59.995Z,20.00
2022-07-31T19:23:42.641Z,19.99
2022-07-31T19:26:09.249Z,20.00
2022-07-31T19:28:38.103Z,20.02
2022-07-31T19:31:04.757Z,19.99
2022-07-31T19:33:31.676Z,19.97
2022-07-31T19:36:01.813Z,19.99
2022-07-31T19:38:30.253Z,19.97
2022-07-31T19:40:57.217Z,19.97
2022-07-31T19:43:23.770Z,19.97
2022-07-31T19:46:10.433Z,20.02
2022-07-31T19:48:41.602Z,20.06
2022-07-31T19:51:08.657Z,20.02
2022-07-31T19:53:35.654Z,20.02
2022-07-31T19:56:05.806Z,20.03
2022-07-31T19:58:36.926Z,20.04
2022-07-31T20:01:04.843Z,20.03
2022-07-31T20:03:31.622Z,19.98
2022-07-31T20:06:00.226Z,19.96
2022-07-31T20:08:28.112Z,19.93
2022-07-31T20:11:02.960Z,19.95
2022-07-31T20:13:32.775Z,19.96
2022-07-31T20:15:59.289Z,19.95
2022-07-31T20:18:29.374Z,19.92
2022-07-31T20:20:58.997Z,19.95
2022-07-31T20:23:26.307Z,19.96
2022-07-31T20:25:53.710Z,19.95
2022-07-31T20:28:20.504Z,19.97
2022-07-31T20:30:46.967Z,19.96
2022-07-31T20:33:13.631Z,19.94
2022-07-31T20:35:48.768Z,19.94
2022-07-31T20:38:21.232Z,19.92
2022-07-31T20:40:53.565Z,19.90
2022-07-31T20:43:27.122Z,19.88
2022-07-31T20:45:57.716Z,19.88
2022-07-31T20:48:35.059Z,19.88
2022-07-31T20:51:03.475Z,19.87
2022-07-31T20:53:31.009Z,19.87
2022-07-31T20:55:57.976Z,19.82
2022-07-31T20:58:25.470Z,19.81
2022-07-31T21:00:53.183Z,19.83
2022-07-31T21:03:23.385Z,19.82
2022-07-31T21:05:50.493Z,19.84
2022-07-31T21:08:17.488Z,19.83
2022-07-31T21:10:44.167Z,19.82
2022-07-31T21:13:10.824Z,19.82
2022-07-31T21:15:42.414Z,19.81
2022-07-31T21:18:16.123Z,19.82
2022-07-31T21:20:52.045Z,19.83
2022-07-31T21:23:25.140Z,19.82
2022-07-31T21:25:52.813Z,19.81
2022-07-31T21:28:20.029Z,19.79
2022-07-31T21:30:47.131Z,19.79
2022-07-31T21:33:13.621Z,19.78
2022-07-31T21:35:41.165Z,19.78
2022-07-31T21:38:11.848Z,19.74
2022-07-31T21:40:39.134Z,19.73
2022-07-31T21:43:06.246Z,19.78
2022-07-31T21:45:50.426Z,19.77
2022-07-31T21:48:22.265Z,19.80
2022-07-31T21:50:49.169Z,19.80
2022-07-31T21:53:15.894Z,19.79
2022-07-31T21:55:44.858Z,19.80
2022-07-31T21:58:11.401Z,19.80
2022-07-31T22:00:38.300Z,19.78
2022-07-31T22:03:05.090Z,19.79
2022-07-31T22:05:51.400Z,19.77
2022-07-31T22:08:18.408Z,19.74
2022-07-31T22:10:45.659Z,19.69
2022-07-31T22:13:12.163Z,19.69
2022-07-31T22:15:51.458Z,19.68
2022-07-31T22:18:30.694Z,19.68
2022-07-31T22:20:57.993Z,19.66
2022-07-31T22:23:26.057Z,19.64
2022-07-31T22:25:53.101Z,19.63
2022-07-31T22:28:21.395Z,19.65
2022-07-31T22:30:48.518Z,19.66
2022-07-31T22:33:15.517Z,19.63
2022-07-31T22:35:42.406Z,19.58
2022-07-31T22:38:11.069Z,19.55
2022-07-31T22:40:37.713Z,19.52
2022-07-31T22:44:09.318Z,19.47
2022-07-31T22:45:53.346Z,19.42
2022-07-31T22:48:22.014Z,19.38
2022-07-31T22:50:48.998Z,19.33
2022-07-31T22:53:15.916Z,19.32
2022-07-31T22:55:42.483Z,19.27
2022-07-31T22:58:11.264Z,19.25
2022-07-31T23:00:38.070Z,19.25
2022-07-31T23:03:04.691Z,19.23
2022-07-31T23:06:03.558Z,19.24
2022-07-31T23:08:17.560Z,19.26
2022-07-31T23:10:44.104Z,19.26
2022-07-31T23:13:10.502Z,19.27
2022-07-31T23:15:36.985Z,19.29
2022-07-31T23:18:03.751Z,19.29
2022-07-31T23:20:30.221Z,19.29
2022-07-31T23:22:56.833Z,19.28
2022-07-31T23:25:23.735Z,19.26
2022-07-31T23:27:50.144Z,19.23
2022-07-31T23:30:16.585Z,19.17
2022-07-31T23:32:43.300Z,19.19
2022-07-31T23:35:10.494Z,19.19
2022-07-31T23:37:37.129Z,19.20
2022-07-31T23:40:04.252Z,19.19
2022-07-31T23:42:39.503Z,19.17
2022-07-31T23:45:11.560Z,19.18
2022-07-31T23:47:44.820Z,19.15
2022-07-31T23:50:14.183Z,19.12
2022-07-31T23:52:41.044Z,19.14
2022-07-31T23:55:07.721Z,19.14
2022-07-31T23:57:35.947Z,19.15
